2TN4 weather

Shoemaker-Shelby Forest Airport
Millington, Tennessee, United States

Public forecast

Using degrees Fahrenheit for public forecast. Weather courtesy of forecast.io.

METAR (pilot weather report)

Closest report is Millington-Memphis Airport, 8.4 nm (15.6 km) ENE. Retrieved 2019/06/16 00:35 UTC (0 seconds ago):

KNQA 160035Z AUTO 20003KT 10SM CLR 28/21 A2989 RMK A01

TAF (pilot weather forecast)

Forecast is more than 12 hours old.

Closest forecast is Memphis International Airport, 16.8 nm (31.1 km) S. Retrieved 2019/06/15 00:24 UTC (24 hours ago):

TAF KMEM 152323Z 1600/1706 21010KT P6SM FEW050 BKN250 FM161100 21011KT P6SM OVC250 FM161500 21011G17KT P6SM BKN035 OVC150 FM162000 21011KT P6SM VCTS BKN045CB OVC250 FM170300 15005KT P6SM OVC100